createdAt,value
2023-04-19T00:02:26.654Z,33.90
2023-04-19T00:07:28.845Z,30.58
2023-04-19T00:12:30.961Z,30.92
2023-04-19T00:17:34.083Z,36.40
2023-04-19T00:22:36.450Z,47.42
2023-04-19T00:27:38.531Z,27.05
2023-04-19T00:32:40.642Z,30.25
2023-04-19T00:37:42.798Z,33.58
2023-04-19T00:42:48.495Z,38.72
2023-04-19T00:47:51.041Z,39.80
2023-04-19T00:52:56.349Z,44.90
2023-04-19T00:58:00.733Z,43.85
2023-04-19T01:03:03.875Z,40.80
2023-04-19T01:08:06.354Z,37.00
2023-04-19T01:13:08.495Z,30.98
2023-04-19T01:18:14.136Z,37.45
2023-04-19T01:23:16.889Z,36.13
2023-04-19T01:28:19.003Z,39.95
2023-04-19T01:33:21.964Z,35.42
2023-04-19T01:38:24.602Z,36.92
2023-04-19T01:43:26.777Z,37.10
2023-04-19T01:48:29.274Z,29.42
2023-04-19T01:53:31.402Z,33.90
2023-04-19T01:58:33.554Z,38.03
2023-04-19T02:03:36.034Z,34.53
2023-04-19T02:08:38.813Z,37.85
2023-04-19T02:13:41.581Z,40.38
2023-04-19T02:18:43.753Z,36.95
2023-04-19T02:23:46.579Z,35.97
2023-04-19T02:28:50.646Z,42.58
2023-04-19T02:33:52.786Z,46.10
2023-04-19T02:38:54.952Z,51.22
2023-04-19T02:43:57.056Z,44.53
2023-04-19T02:49:01.268Z,52.83
2023-04-19T02:54:03.555Z,41.03
2023-04-19T02:59:06.278Z,33.65
2023-04-19T03:04:09.537Z,38.80
2023-04-19T03:09:12.076Z,41.25
2023-04-19T03:14:14.551Z,40.15
2023-04-19T03:19:16.901Z,50.90
2023-04-19T03:24:31.109Z,53.50
2023-04-19T03:29:38.710Z,51.13
2023-04-19T03:34:46.707Z,43.45
2023-04-19T03:39:51.255Z,45.33
2023-04-19T03:44:59.670Z,33.20
2023-04-19T03:50:04.702Z,50.80
2023-04-19T03:55:10.156Z,37.20
2023-04-19T04:00:15.824Z,56.20
2023-04-19T04:05:18.032Z,41.25
2023-04-19T04:10:20.402Z,45.38
2023-04-19T04:15:23.043Z,46.47
2023-04-19T04:20:28.632Z,40.55
2023-04-19T04:25:39.309Z,39.78
2023-04-19T04:30:46.085Z,45.38
2023-04-19T04:35:48.738Z,38.67
2023-04-19T04:40:57.027Z,47.33
2023-04-19T04:45:59.542Z,49.05
2023-04-19T04:51:06.203Z,55.33
2023-04-19T04:56:10.293Z,62.15
2023-04-19T05:01:12.478Z,55.38
2023-04-19T05:06:16.967Z,76.65
2023-04-19T05:11:20.491Z,72.05
2023-04-19T05:16:24.517Z,59.38
2023-04-19T05:21:29.646Z,51.10
2023-04-19T05:26:32.256Z,59.65
2023-04-19T05:31:35.395Z,71.32
2023-04-19T05:36:47.081Z,59.60
2023-04-19T05:41:50.836Z,74.70
2023-04-19T05:46:53.126Z,64.93
2023-04-19T05:52:15.390Z,71.15
2023-04-19T05:57:28.026Z,73.57
2023-04-19T06:02:31.060Z,62.70
2023-04-19T06:07:36.046Z,46.95
2023-04-19T06:12:42.594Z,77.03
2023-04-19T06:17:44.666Z,61.17
2023-04-19T06:22:46.859Z,67.07
2023-04-19T06:27:49.020Z,64.57
2023-04-19T06:32:51.169Z,64.30
2023-04-19T06:37:53.353Z,52.47
2023-04-19T06:42:55.988Z,53.35
2023-04-19T06:47:58.391Z,69.00
2023-04-19T06:53:01.167Z,62.03
2023-04-19T06:58:04.336Z,60.45
2023-04-19T07:03:06.609Z,58.85
2023-04-19T07:08:08.927Z,44.53
2023-04-19T07:13:11.805Z,54.50
2023-04-19T07:18:16.154Z,48.40
2023-04-19T07:23:19.444Z,66.28
2023-04-19T07:28:21.601Z,54.00
2023-04-19T07:33:27.455Z,56.47
2023-04-19T07:38:30.439Z,59.13
2023-04-19T07:43:32.724Z,58.72
2023-04-19T07:48:34.783Z,45.80
2023-04-19T07:53:37.776Z,51.40
2023-04-19T07:58:41.400Z,58.67
2023-04-19T08:03:43.839Z,53.85
2023-04-19T08:08:46.622Z,61.78
2023-04-19T08:14:02.690Z,57.40
2023-04-19T08:19:08.799Z,52.45
2023-04-19T08:24:11.220Z,53.20
2023-04-19T08:29:13.357Z,51.08
2023-04-19T08:34:15.544Z,51.67
2023-04-19T08:39:29.139Z,50.13
2023-04-19T08:44:45.063Z,58.97
2023-04-19T08:50:11.116Z,52.13
2023-04-19T08:55:20.775Z,45.58
2023-04-19T09:00:23.007Z,40.75
2023-04-19T09:05:25.603Z,49.08
2023-04-19T09:10:27.902Z,43.10
2023-04-19T09:15:41.720Z,44.72
2023-04-19T09:20:44.784Z,36.38
2023-04-19T09:26:21.942Z,43.80
2023-04-19T09:31:39.066Z,35.95
2023-04-19T09:36:46.915Z,39.15
2023-04-19T09:41:53.756Z,31.92
2023-04-19T09:46:56.064Z,34.50
2023-04-19T09:51:58.365Z,33.63
2023-04-19T09:57:01.886Z,34.10
2023-04-19T10:02:06.724Z,31.05
2023-04-19T10:07:29.036Z,34.17
2023-04-19T10:12:52.200Z,31.95
2023-04-19T10:17:55.523Z,28.35
2023-04-19T10:22:57.848Z,22.55
2023-04-19T10:27:59.971Z,28.65
2023-04-19T10:33:03.991Z,24.30
2023-04-19T10:38:16.585Z,26.13
2023-04-19T10:43:19.724Z,32.03
2023-04-19T10:48:32.197Z,25.67
2023-04-19T10:53:47.122Z,25.35
2023-04-19T10:59:01.569Z,29.70
2023-04-19T11:04:04.168Z,22.92
2023-04-19T11:09:07.295Z,24.70
2023-04-19T11:14:10.051Z,19.88
2023-04-19T11:19:16.402Z,24.80
2023-04-19T11:24:19.091Z,17.13
2023-04-19T11:29:21.900Z,20.67
2023-04-19T11:34:24.277Z,21.05
2023-04-19T11:39:26.630Z,16.90
2023-04-19T11:44:28.730Z,15.95
2023-04-19T11:49:33.870Z,18.23
2023-04-19T11:54:36.003Z,16.90
2023-04-19T11:59:39.081Z,18.10
2023-04-19T12:04:41.685Z,24.17
2023-04-19T12:09:44.014Z,28.63
2023-04-19T12:14:52.858Z,33.13
2023-04-19T12:19:54.918Z,40.72
2023-04-19T12:24:57.706Z,34.50
2023-04-19T12:29:59.798Z,31.63
2023-04-19T12:35:01.834Z,29.23
2023-04-19T12:40:04.312Z,24.23
2023-04-19T12:45:06.909Z,30.02
2023-04-19T12:50:09.868Z,23.13
2023-04-19T12:55:12.090Z,23.75
2023-04-19T13:00:15.742Z,23.98
2023-04-19T13:05:17.879Z,23.38
2023-04-19T13:10:21.110Z,22.90
2023-04-19T13:15:23.293Z,21.67
2023-04-19T13:20:25.473Z,24.00
2023-04-19T13:25:27.583Z,22.90
2023-04-19T13:30:29.789Z,24.95
2023-04-19T13:35:31.921Z,21.83
2023-04-19T13:40:34.225Z,23.25
2023-04-19T13:45:36.378Z,27.65
2023-04-19T13:50:38.557Z,27.75
2023-04-19T13:55:41.288Z,23.88
2023-04-19T14:00:44.001Z,22.83
2023-04-19T14:05:46.233Z,23.75
2023-04-19T14:10:49.636Z,23.08
2023-04-19T14:15:51.861Z,28.65
2023-04-19T14:20:54.737Z,23.10
2023-04-19T14:25:56.864Z,23.45
2023-04-19T14:30:58.983Z,20.30
2023-04-19T14:36:01.566Z,22.83
2023-04-19T14:41:03.738Z,21.38
2023-04-19T14:46:07.446Z,24.13
2023-04-19T14:51:09.485Z,27.13
2023-04-19T14:56:11.584Z,21.88
2023-04-19T15:01:14.575Z,20.92
2023-04-19T15:06:17.017Z,20.48
2023-04-19T15:11:19.133Z,18.90
2023-04-19T15:16:21.257Z,21.05
2023-04-19T15:21:24.786Z,21.73
2023-04-19T15:26:27.064Z,23.45
2023-04-19T15:31:29.181Z,19.10
2023-04-19T15:36:31.978Z,23.98
2023-04-19T15:41:34.066Z,19.10
2023-04-19T15:46:36.254Z,20.38
2023-04-19T15:51:39.052Z,24.65
2023-04-19T15:56:41.542Z,20.77
2023-04-19T16:01:43.750Z,23.48
2023-04-19T16:06:45.881Z,18.65
2023-04-19T16:11:47.989Z,23.85
2023-04-19T16:16:50.275Z,19.42
2023-04-19T16:21:52.453Z,22.77
2023-04-19T16:26:54.501Z,21.23
2023-04-19T16:31:57.169Z,19.35
2023-04-19T16:36:59.308Z,25.90
2023-04-19T16:42:01.984Z,21.90
2023-04-19T16:47:04.052Z,23.75
2023-04-19T16:52:06.165Z,23.23
2023-04-19T16:57:08.936Z,22.25
2023-04-19T17:02:11.528Z,21.80
2023-04-19T17:07:13.817Z,18.55
2023-04-19T17:12:15.972Z,19.55
2023-04-19T17:17:21.192Z,20.15
2023-04-19T17:22:23.394Z,19.60
2023-04-19T17:27:25.511Z,20.63
2023-04-19T17:32:27.689Z,22.70
2023-04-19T17:37:30.000Z,19.05
2023-04-19T17:42:32.056Z,16.67
2023-04-19T17:47:34.101Z,28.60
2023-04-19T17:52:36.277Z,20.98
2023-04-19T17:57:38.420Z,23.02
2023-04-19T18:02:40.969Z,23.05
2023-04-19T18:07:43.345Z,26.83
2023-04-19T18:12:45.426Z,21.90
2023-04-19T18:17:47.665Z,22.58
2023-04-19T18:22:50.693Z,16.65
2023-04-19T18:27:52.829Z,27.73
2023-04-19T18:32:55.128Z,25.95
2023-04-19T18:37:57.833Z,28.95
2023-04-19T18:42:59.891Z,27.40
2023-04-19T18:48:02.090Z,23.17
2023-04-19T18:53:04.384Z,24.80
2023-04-19T18:58:07.498Z,29.70
2023-04-19T19:03:33.609Z,29.85
2023-04-19T19:08:32.170Z,33.92
2023-04-19T19:13:34.248Z,26.52
2023-04-19T19:18:36.585Z,28.70
2023-04-19T19:23:42.505Z,31.45
2023-04-19T19:28:44.981Z,37.40
2023-04-19T19:33:53.893Z,36.10
2023-04-19T19:39:11.025Z,32.92
2023-04-19T19:44:13.226Z,28.35
2023-04-19T19:49:15.615Z,38.58
2023-04-19T19:54:17.936Z,37.50
2023-04-19T19:59:20.261Z,39.30
2023-04-19T20:04:23.041Z,43.88
2023-04-19T20:09:27.773Z,42.08
2023-04-19T20:14:30.701Z,37.17
2023-04-19T20:19:32.890Z,32.10
2023-04-19T20:24:35.070Z,31.02
2023-04-19T20:29:37.404Z,33.47
2023-04-19T20:34:39.912Z,37.35
2023-04-19T20:39:41.997Z,41.15
2023-04-19T20:44:44.699Z,44.88
2023-04-19T20:49:46.939Z,42.10
2023-04-19T20:54:49.080Z,36.53
2023-04-19T20:59:51.600Z,45.35
2023-04-19T21:04:53.838Z,36.65
2023-04-19T21:09:55.881Z,44.83
2023-04-19T21:14:58.179Z,35.00
2023-04-19T21:20:02.675Z,34.10
2023-04-19T21:25:05.938Z,44.17
2023-04-19T21:30:09.535Z,48.85
2023-04-19T21:35:11.653Z,30.88
2023-04-19T21:40:14.078Z,36.47
2023-04-19T21:45:16.297Z,34.58
2023-04-19T21:50:18.752Z,53.70
2023-04-19T21:55:20.964Z,41.08
2023-04-19T22:00:24.254Z,34.65
2023-04-19T22:05:26.459Z,32.40
2023-04-19T22:10:28.773Z,40.63
2023-04-19T22:15:31.860Z,43.75
2023-04-19T22:20:34.745Z,53.03
2023-04-19T22:25:37.298Z,28.38
2023-04-19T22:30:39.504Z,53.00
2023-04-19T22:35:41.905Z,37.70
2023-04-19T22:40:43.983Z,43.40
2023-04-19T22:45:47.994Z,33.72
2023-04-19T22:50:52.635Z,45.05
2023-04-19T22:55:54.791Z,39.63
2023-04-19T23:00:56.975Z,43.80
2023-04-19T23:05:59.303Z,42.05
2023-04-19T23:11:01.459Z,61.40
2023-04-19T23:16:04.482Z,50.38
2023-04-19T23:21:06.888Z,39.63
2023-04-19T23:26:09.858Z,51.55
2023-04-19T23:31:12.358Z,35.08
2023-04-19T23:36:14.641Z,60.28
2023-04-19T23:41:17.002Z,40.08
2023-04-19T23:46:19.135Z,49.25
2023-04-19T23:51:21.421Z,49.15
2023-04-19T23:56:23.521Z,67.35
